sensor_id;sensor_type;location;lat;lon;timestamp;pressure;altitude;pressure_sealevel;temperature;humidity
21545;BME280;10933;50.754;11.508;2024-02-28T00:02:03;99878.28;;;4.17;100.00
21545;BME280;10933;50.754;11.508;2024-02-28T00:04:30;99896.34;;;4.14;100.00
21545;BME280;10933;50.754;11.508;2024-02-28T00:06:56;99912.59;;;4.20;100.00
21545;BME280;10933;50.754;11.508;2024-02-28T00:09:22;99915.88;;;4.22;100.00
21545;BME280;10933;50.754;11.508;2024-02-28T00:11:48;99922.06;;;4.22;100.00
21545;BME280;10933;50.754;11.508;2024-02-28T00:14:14;99924.09;;;4.20;100.00
21545;BME280;10933;50.754;11.508;2024-02-28T00:16:44;99933.13;;;4.19;100.00
21545;BME280;10933;50.754;11.508;2024-02-28T00:19:11;99937.25;;;4.22;100.00
21545;BME280;10933;50.754;11.508;2024-02-28T00:21:38;99945.63;;;4.19;100.00
21545;BME280;10933;50.754;11.508;2024-02-28T00:24:06;99960.66;;;4.20;100.00
21545;BME280;10933;50.754;11.508;2024-02-28T00:26:32;99961.03;;;4.17;100.00
21545;BME280;10933;50.754;11.508;2024-02-28T00:28:58;99972.19;;;4.27;100.00
21545;BME280;10933;50.754;11.508;2024-02-28T00:31:24;99974.44;;;4.23;100.00
21545;BME280;10933;50.754;11.508;2024-02-28T00:33:51;99977.47;;;4.13;100.00
21545;BME280;10933;50.754;11.508;2024-02-28T00:36:17;99997.53;;;4.03;100.00
21545;BME280;10933;50.754;11.508;2024-02-28T00:38:44;100012.72;;;4.02;100.00
21545;BME280;10933;50.754;11.508;2024-02-28T00:41:10;100023.81;;;3.99;100.00
21545;BME280;10933;50.754;11.508;2024-02-28T00:43:36;100037.78;;;4.01;100.00
21545;BME280;10933;50.754;11.508;2024-02-28T00:46:02;100052.56;;;4.04;100.00
21545;BME280;10933;50.754;11.508;2024-02-28T00:48:29;100071.72;;;4.07;100.00
21545;BME280;10933;50.754;11.508;2024-02-28T00:50:55;100083.78;;;4.03;100.00
21545;BME280;10933;50.754;11.508;2024-02-28T00:53:21;100082.84;;;4.18;100.00
21545;BME280;10933;50.754;11.508;2024-02-28T00:55:47;100090.75;;;4.32;100.00
21545;BME280;10933;50.754;11.508;2024-02-28T00:58:14;100093.22;;;4.34;100.00
21545;BME280;10933;50.754;11.508;2024-02-28T01:00:40;100087.97;;;4.19;100.00
21545;BME280;10933;50.754;11.508;2024-02-28T01:03:06;100099.81;;;4.38;100.00
21545;BME280;10933;50.754;11.508;2024-02-28T01:05:34;100089.06;;;4.25;100.00
21545;BME280;10933;50.754;11.508;2024-02-28T01:08:01;100100.38;;;4.27;100.00
21545;BME280;10933;50.754;11.508;2024-02-28T01:10:27;100103.44;;;4.24;100.00
21545;BME280;10933;50.754;11.508;2024-02-28T01:12:53;100105.22;;;4.17;100.00
21545;BME280;10933;50.754;11.508;2024-02-28T01:15:19;100115.69;;;4.46;100.00
21545;BME280;10933;50.754;11.508;2024-02-28T01:17:45;100100.72;;;4.17;100.00
21545;BME280;10933;50.754;11.508;2024-02-28T01:20:11;100102.72;;;4.08;100.00
21545;BME280;10933;50.754;11.508;2024-02-28T01:22:37;100100.38;;;4.27;100.00
21545;BME280;10933;50.754;11.508;2024-02-28T01:25:03;100083.88;;;4.17;100.00
21545;BME280;10933;50.754;11.508;2024-02-28T01:27:29;100072.81;;;4.20;100.00
21545;BME280;10933;50.754;11.508;2024-02-28T01:29:56;100066.28;;;4.29;100.00
21545;BME280;10933;50.754;11.508;2024-02-28T01:32:22;100060.91;;;4.22;100.00
21545;BME280;10933;50.754;11.508;2024-02-28T01:34:48;100053.16;;;4.34;100.00
21545;BME280;10933;50.754;11.508;2024-02-28T01:37:14;100031.84;;;4.47;100.00
21545;BME280;10933;50.754;11.508;2024-02-28T01:39:40;100009.56;;;4.27;100.00
21545;BME280;10933;50.754;11.508;2024-02-28T01:42:06;100009.41;;;4.35;100.00
21545;BME280;10933;50.754;11.508;2024-02-28T01:44:36;100001.84;;;4.45;100.00
21545;BME280;10933;50.754;11.508;2024-02-28T01:47:06;99979.41;;;4.33;100.00
21545;BME280;10933;50.754;11.508;2024-02-28T01:49:33;99968.72;;;4.39;100.00
21545;BME280;10933;50.754;11.508;2024-02-28T01:51:59;99957.09;;;4.60;100.00
21545;BME280;10933;50.754;11.508;2024-02-28T01:54:27;99949.66;;;4.49;100.00
21545;BME280;10933;50.754;11.508;2024-02-28T01:56:54;99937.31;;;4.48;100.00
21545;BME280;10933;50.754;11.508;2024-02-28T01:59:21;99929.31;;;4.55;100.00
21545;BME280;10933;50.754;11.508;2024-02-28T02:01:48;99927.22;;;4.43;100.00
21545;BME280;10933;50.754;11.508;2024-02-28T02:04:15;99921.41;;;4.13;100.00
21545;BME280;10933;50.754;11.508;2024-02-28T02:06:43;99925.69;;;4.08;100.00
21545;BME280;10933;50.754;11.508;2024-02-28T02:09:10;99929.97;;;4.02;100.00
21545;BME280;10933;50.754;11.508;2024-02-28T02:11:37;99935.56;;;4.07;100.00
21545;BME280;10933;50.754;11.508;2024-02-28T02:14:04;99942.22;;;4.38;100.00
21545;BME280;10933;50.754;11.508;2024-02-28T02:16:30;99936.84;;;4.25;100.00
21545;BME280;10933;50.754;11.508;2024-02-28T02:18:56;99932.06;;;4.13;100.00
21545;BME280;10933;50.754;11.508;2024-02-28T02:21:24;99925.88;;;4.06;100.00
21545;BME280;10933;50.754;11.508;2024-02-28T02:23:52;99926.38;;;4.23;100.00
21545;BME280;10933;50.754;11.508;2024-02-28T02:26:18;99922.00;;;4.09;100.00
21545;BME280;10933;50.754;11.508;2024-02-28T02:28:44;99910.91;;;4.12;100.00
21545;BME280;10933;50.754;11.508;2024-02-28T02:31:12;99914.25;;;4.21;100.00
21545;BME280;10933;50.754;11.508;2024-02-28T02:33:39;99903.72;;;4.12;100.00
21545;BME280;10933;50.754;11.508;2024-02-28T02:36:05;99890.22;;;4.21;100.00
21545;BME280;10933;50.754;11.508;2024-02-28T02:38:31;99879.34;;;4.42;100.00
21545;BME280;10933;50.754;11.508;2024-02-28T02:40:57;99870.88;;;4.19;100.00
21545;BME280;10933;50.754;11.508;2024-02-28T02:43:23;99860.88;;;4.34;100.00
21545;BME280;10933;50.754;11.508;2024-02-28T02:45:49;99867.41;;;4.31;100.00
21545;BME280;10933;50.754;11.508;2024-02-28T02:48:16;99847.31;;;4.68;100.00
21545;BME280;10933;50.754;11.508;2024-02-28T02:50:42;99831.28;;;4.42;100.00
21545;BME280;10933;50.754;11.508;2024-02-28T02:53:10;99817.50;;;4.38;100.00
21545;BME280;10933;50.754;11.508;2024-02-28T02:55:36;99803.13;;;4.26;100.00
21545;BME280;10933;50.754;11.508;2024-02-28T02:58:02;99796.97;;;4.32;100.00
21545;BME280;10933;50.754;11.508;2024-02-28T03:00:29;99798.34;;;3.95;100.00
21545;BME280;10933;50.754;11.508;2024-02-28T03:02:55;99796.31;;;3.97;100.00
21545;BME280;10933;50.754;11.508;2024-02-28T03:05:21;99805.16;;;4.18;100.00
21545;BME280;10933;50.754;11.508;2024-02-28T03:07:47;99803.31;;;4.25;100.00
21545;BME280;10933;50.754;11.508;2024-02-28T03:10:14;99802.72;;;4.23;100.00
21545;BME280;10933;50.754;11.508;2024-02-28T03:12:40;99799.59;;;3.99;100.00
21545;BME280;10933;50.754;11.508;2024-02-28T03:15:07;99807.78;;;3.91;100.00
21545;BME280;10933;50.754;11.508;2024-02-28T03:17:33;99820.56;;;4.16;100.00
21545;BME280;10933;50.754;11.508;2024-02-28T03:19:59;99817.28;;;4.13;100.00
21545;BME280;10933;50.754;11.508;2024-02-28T03:22:25;99809.44;;;4.05;100.00
21545;BME280;10933;50.754;11.508;2024-02-28T03:24:51;99821.63;;;4.41;100.00
21545;BME280;10933;50.754;11.508;2024-02-28T03:27:17;99803.31;;;4.18;100.00
21545;BME280;10933;50.754;11.508;2024-02-28T03:29:43;99806.22;;;4.23;100.00
21545;BME280;10933;50.754;11.508;2024-02-28T03:32:10;99810.72;;;4.23;100.00
21545;BME280;10933;50.754;11.508;2024-02-28T03:34:36;99805.81;;;4.20;100.00
21545;BME280;10933;50.754;11.508;2024-02-28T03:37:02;99809.25;;;4.00;100.00
21545;BME280;10933;50.754;11.508;2024-02-28T03:39:28;99819.50;;;4.03;100.00
21545;BME280;10933;50.754;11.508;2024-02-28T03:41:54;99823.66;;;4.12;100.00
21545;BME280;10933;50.754;11.508;2024-02-28T03:44:20;99816.06;;;4.23;100.00
21545;BME280;10933;50.754;11.508;2024-02-28T03:46:47;99823.00;;;3.97;100.00
21545;BME280;10933;50.754;11.508;2024-02-28T03:49:13;99818.50;;;4.11;100.00
21545;BME280;10933;50.754;11.508;2024-02-28T03:51:40;99817.69;;;4.10;100.00
21545;BME280;10933;50.754;11.508;2024-02-28T03:54:07;99810.09;;;4.07;100.00
21545;BME280;10933;50.754;11.508;2024-02-28T03:56:33;99820.53;;;4.02;100.00
21545;BME280;10933;50.754;11.508;2024-02-28T03:59:01;99831.25;;;4.29;100.00
21545;BME280;10933;50.754;11.508;2024-02-28T04:01:27;99813.16;;;4.18;100.00
21545;BME280;10933;50.754;11.508;2024-02-28T04:03:53;99816.28;;;4.21;100.00
21545;BME280;10933;50.754;11.508;2024-02-28T04:06:19;99813.97;;;4.05;100.00
21545;BME280;10933;50.754;11.508;2024-02-28T04:08:45;99816.84;;;3.97;100.00
21545;BME280;10933;50.754;11.508;2024-02-28T04:11:11;99810.88;;;4.01;100.00
21545;BME280;10933;50.754;11.508;2024-02-28T04:13:37;99811.06;;;3.93;100.00
21545;BME280;10933;50.754;11.508;2024-02-28T04:16:03;99805.34;;;3.96;100.00
21545;BME280;10933;50.754;11.508;2024-02-28T04:18:30;99802.91;;;4.28;100.00
21545;BME280;10933;50.754;11.508;2024-02-28T04:20:56;99813.00;;;4.52;100.00
21545;BME280;10933;50.754;11.508;2024-02-28T04:23:22;99797.19;;;4.51;100.00
21545;BME280;10933;50.754;11.508;2024-02-28T04:25:48;99790.19;;;4.30;100.00
21545;BME280;10933;50.754;11.508;2024-02-28T04:28:14;99791.22;;;4.29;100.00
21545;BME280;10933;50.754;11.508;2024-02-28T04:30:40;99786.72;;;4.49;100.00
21545;BME280;10933;50.754;11.508;2024-02-28T04:33:06;99778.88;;;4.54;100.00
21545;BME280;10933;50.754;11.508;2024-02-28T04:35:33;99771.72;;;4.35;100.00
21545;BME280;10933;50.754;11.508;2024-02-28T04:37:59;99776.22;;;4.54;100.00
21545;BME280;10933;50.754;11.508;2024-02-28T04:40:25;99769.22;;;4.66;100.00
21545;BME280;10933;50.754;11.508;2024-02-28T04:42:54;99762.03;;;4.60;100.00
21545;BME280;10933;50.754;11.508;2024-02-28T04:45:20;99752.41;;;4.20;100.00
21545;BME280;10933;50.754;11.508;2024-02-28T04:47:46;99759.38;;;4.07;100.00
21545;BME280;10933;50.754;11.508;2024-02-28T04:50:12;99764.09;;;4.12;100.00
21545;BME280;10933;50.754;11.508;2024-02-28T04:52:38;99766.13;;;4.10;100.00
21545;BME280;10933;50.754;11.508;2024-02-28T04:55:05;99773.53;;;4.14;100.00
21545;BME280;10933;50.754;11.508;2024-02-28T04:57:31;99775.41;;;4.21;100.00
21545;BME280;10933;50.754;11.508;2024-02-28T04:59:57;99783.63;;;4.39;100.00
21545;BME280;10933;50.754;11.508;2024-02-28T05:02:23;99777.47;;;4.45;100.00
21545;BME280;10933;50.754;11.508;2024-02-28T05:04:51;99777.25;;;4.27;100.00
21545;BME280;10933;50.754;11.508;2024-02-28T05:07:17;99777.88;;;4.35;100.00
21545;BME280;10933;50.754;11.508;2024-02-28T05:09:43;99786.91;;;4.48;100.00
21545;BME280;10933;50.754;11.508;2024-02-28T05:12:10;99787.13;;;4.59;100.00
21545;BME280;10933;50.754;11.508;2024-02-28T05:14:37;99792.03;;;4.62;100.00
21545;BME280;10933;50.754;11.508;2024-02-28T05:17:04;99788.16;;;4.58;100.00
21545;BME280;10933;50.754;11.508;2024-02-28T05:19:30;99798.81;;;4.25;100.00
21545;BME280;10933;50.754;11.508;2024-02-28T05:21:57;99821.19;;;4.44;100.00
21545;BME280;10933;50.754;11.508;2024-02-28T05:24:23;99820.81;;;4.47;100.00
21545;BME280;10933;50.754;11.508;2024-02-28T05:26:49;99825.91;;;4.29;100.00
21545;BME280;10933;50.754;11.508;2024-02-28T05:29:15;99840.75;;;4.64;100.00
21545;BME280;10933;50.754;11.508;2024-02-28T05:31:41;99821.63;;;4.41;100.00
21545;BME280;10933;50.754;11.508;2024-02-28T05:34:07;99813.22;;;4.70;100.00
21545;BME280;10933;50.754;11.508;2024-02-28T05:36:33;99818.94;;;4.94;100.00
21545;BME280;10933;50.754;11.508;2024-02-28T05:39:00;99803.53;;;4.76;100.00
21545;BME280;10933;50.754;11.508;2024-02-28T05:41:27;99806.41;;;4.55;100.00
21545;BME280;10933;50.754;11.508;2024-02-28T05:43:54;99810.75;;;4.62;100.00
21545;BME280;10933;50.754;11.508;2024-02-28T05:46:20;99818.16;;;4.47;100.00
21545;BME280;10933;50.754;11.508;2024-02-28T05:48:48;99822.25;;;4.63;100.00
21545;BME280;10933;50.754;11.508;2024-02-28T05:51:14;99818.97;;;4.87;100.00
21545;BME280;10933;50.754;11.508;2024-02-28T05:53:41;99812.78;;;5.00;100.00
21545;BME280;10933;50.754;11.508;2024-02-28T05:56:09;99808.69;;;4.78;100.00
21545;BME280;10933;50.754;11.508;2024-02-28T05:58:44;99806.22;;;4.76;100.00
21545;BME280;10933;50.754;11.508;2024-02-28T06:01:11;99808.28;;;4.34;100.00
21545;BME280;10933;50.754;11.508;2024-02-28T06:03:38;99818.50;;;4.11;100.00
21545;BME280;10933;50.754;11.508;2024-02-28T06:06:04;99831.88;;;4.31;100.00
21545;BME280;10933;50.754;11.508;2024-02-28T06:08:32;99833.72;;;4.24;100.00
21545;BME280;10933;50.754;11.508;2024-02-28T06:10:59;99849.53;;;4.19;100.00
21545;BME280;10933;50.754;11.508;2024-02-28T06:13:25;99854.66;;;4.13;100.00
21545;BME280;10933;50.754;11.508;2024-02-28T06:15:51;99859.19;;;4.26;100.00
21545;BME280;10933;50.754;11.508;2024-02-28T06:18:17;99867.41;;;4.31;100.00
21545;BME280;10933;50.754;11.508;2024-02-28T06:20:43;99867.81;;;4.22;100.00
21545;BME280;10933;50.754;11.508;2024-02-28T06:23:09;99884.94;;;4.67;100.00
21545;BME280;10933;50.754;11.508;2024-02-28T06:25:35;99871.56;;;4.47;100.00
21545;BME280;10933;50.754;11.508;2024-02-28T06:28:01;99879.97;;;4.37;100.00
21545;BME280;10933;50.754;11.508;2024-02-28T06:30:29;99890.06;;;4.55;100.00
21545;BME280;10933;50.754;11.508;2024-02-28T06:32:55;99893.31;;;4.31;100.00
21545;BME280;10933;50.754;11.508;2024-02-28T06:35:21;99893.31;;;4.31;100.00
21545;BME280;10933;50.754;11.508;2024-02-28T06:37:47;99916.78;;;4.68;100.00
21545;BME280;10933;50.754;11.508;2024-02-28T06:40:16;99908.19;;;4.86;100.00
21545;BME280;10933;50.754;11.508;2024-02-28T06:42:42;99888.63;;;4.66;100.00
21545;BME280;10933;50.754;11.508;2024-02-28T06:45:09;99887.63;;;4.67;100.00
21545;BME280;10933;50.754;11.508;2024-02-28T06:47:35;99889.69;;;4.58;100.00
21545;BME280;10933;50.754;11.508;2024-02-28T06:50:03;99890.50;;;4.59;100.00
21545;BME280;10933;50.754;11.508;2024-02-28T06:52:30;99890.88;;;4.56;100.00
21545;BME280;10933;50.754;11.508;2024-02-28T06:54:56;99892.13;;;4.66;100.00
21545;BME280;10933;50.754;11.508;2024-02-28T06:57:22;99894.59;;;4.68;100.00
21545;BME280;10933;50.754;11.508;2024-02-28T06:59:48;99888.00;;;4.57;100.00
21545;BME280;10933;50.754;11.508;2024-02-28T07:02:15;99880.41;;;4.54;100.00
21545;BME280;10933;50.754;11.508;2024-02-28T07:04:42;99883.91;;;4.68;100.00
21545;BME280;10933;50.754;11.508;2024-02-28T07:07:08;99877.34;;;4.70;100.00
21545;BME280;10933;50.754;11.508;2024-02-28T07:09:34;99871.19;;;4.77;100.00
21545;BME280;10933;50.754;11.508;2024-02-28T07:12:00;99876.09;;;5.06;100.00
21545;BME280;10933;50.754;11.508;2024-02-28T07:14:27;99871.16;;;5.16;100.00
21545;BME280;10933;50.754;11.508;2024-02-28T07:16:53;99866.63;;;5.23;100.00
21545;BME280;10933;50.754;11.508;2024-02-28T07:19:20;99855.94;;;5.23;100.00
21545;BME280;10933;50.754;11.508;2024-02-28T07:21:46;99848.91;;;5.36;100.00
21545;BME280;10933;50.754;11.508;2024-02-28T07:24:12;99838.75;;;5.57;100.00
21545;BME280;10933;50.754;11.508;2024-02-28T07:26:38;99837.63;;;5.78;100.00
21545;BME280;10933;50.754;11.508;2024-02-28T07:29:06;99831.91;;;5.75;100.00
21545;BME280;10933;50.754;11.508;2024-02-28T07:31:32;99839.47;;;5.26;100.00
21545;BME280;10933;50.754;11.508;2024-02-28T07:33:58;99834.06;;;5.46;100.00
21545;BME280;10933;50.754;11.508;2024-02-28T07:36:25;99835.75;;;5.34;100.00
21545;BME280;10933;50.754;11.508;2024-02-28T07:38:51;99844.56;;;5.48;100.00
21545;BME280;10933;50.754;11.508;2024-02-28T07:41:18;99845.22;;;5.23;100.00
21545;BME280;10933;50.754;11.508;2024-02-28T07:43:44;99848.91;;;5.36;100.00
21545;BME280;10933;50.754;11.508;2024-02-28T07:46:11;99851.34;;;5.44;100.00
21545;BME280;10933;50.754;11.508;2024-02-28T07:48:37;99855.47;;;5.33;100.00
21545;BME280;10933;50.754;11.508;2024-02-28T07:51:07;99851.25;;;5.70;100.00
21545;BME280;10933;50.754;11.508;2024-02-28T07:53:34;99871.91;;;5.50;100.00
21545;BME280;10933;50.754;11.508;2024-02-28T07:56:00;99874.19;;;5.46;100.00
21545;BME280;10933;50.754;11.508;2024-02-28T07:58:26;99870.47;;;6.12;100.00
21545;BME280;10933;50.754;11.508;2024-02-28T08:00:52;99892.19;;;5.90;100.00
21545;BME280;10933;50.754;11.508;2024-02-28T08:03:19;99897.66;;;6.09;100.00
21545;BME280;10933;50.754;11.508;2024-02-28T08:05:45;99914.91;;;6.26;100.00
21545;BME280;10933;50.754;11.508;2024-02-28T08:08:13;99928.66;;;5.85;100.00
21545;BME280;10933;50.754;11.508;2024-02-28T08:10:39;99932.28;;;6.10;100.00
21545;BME280;10933;50.754;11.508;2024-02-28T08:13:05;99934.81;;;5.92;100.00
21545;BME280;10933;50.754;11.508;2024-02-28T08:15:32;99941.34;;;6.09;100.00
21545;BME280;10933;50.754;11.508;2024-02-28T08:17:58;99948.16;;;6.12;100.00
21545;BME280;10933;50.754;11.508;2024-02-28T08:20:24;99956.63;;;5.82;100.00
21545;BME280;10933;50.754;11.508;2024-02-28T08:22:51;99949.56;;;6.14;100.00
21545;BME280;10933;50.754;11.508;2024-02-28T08:25:23;99955.72;;;6.22;100.00
21545;BME280;10933;50.754;11.508;2024-02-28T08:27:49;99974.16;;;5.92;100.00
21545;BME280;10933;50.754;11.508;2024-02-28T08:30:15;99962.16;;;6.14;100.00
21545;BME280;10933;50.754;11.508;2024-02-28T08:32:42;99970.44;;;6.51;100.00
21545;BME280;10933;50.754;11.508;2024-02-28T08:35:11;99974.97;;;5.99;100.00
21545;BME280;10933;50.754;11.508;2024-02-28T08:37:40;99990.97;;;6.25;100.00
21545;BME280;10933;50.754;11.508;2024-02-28T08:40:07;99986.19;;;7.03;100.00
21545;BME280;10933;50.754;11.508;2024-02-28T08:42:34;100005.00;;;7.96;100.00
21545;BME280;10933;50.754;11.508;2024-02-28T08:45:00;100039.13;;;9.53;100.00
21545;BME280;10933;50.754;11.508;2024-02-28T08:47:29;100071.31;;;11.05;100.00
21545;BME280;10933;50.754;11.508;2024-02-28T08:49:55;100119.13;;;10.52;100.00
21545;BME280;10933;50.754;11.508;2024-02-28T08:52:21;100129.53;;;11.69;100.00
21545;BME280;10933;50.754;11.508;2024-02-28T08:54:48;100154.97;;;11.73;100.00
21545;BME280;10933;50.754;11.508;2024-02-28T08:57:14;100189.81;;;11.30;100.00
21545;BME280;10933;50.754;11.508;2024-02-28T08:59:41;100207.19;;;11.34;100.00
21545;BME280;10933;50.754;11.508;2024-02-28T09:02:07;100225.53;;;12.51;100.00
21545;BME280;10933;50.754;11.508;2024-02-28T09:04:34;100232.38;;;11.23;100.00
21545;BME280;10933;50.754;11.508;2024-02-28T09:07:00;100235.66;;;9.89;100.00
21545;BME280;10933;50.754;11.508;2024-02-28T09:09:27;100241.81;;;9.78;100.00
21545;BME280;10933;50.754;11.508;2024-02-28T09:11:54;100231.50;;;10.58;100.00
21545;BME280;10933;50.754;11.508;2024-02-28T09:14:20;100238.78;;;10.16;100.00
21545;BME280;10933;50.754;11.508;2024-02-28T09:16:46;100246.59;;;11.58;100.00
21545;BME280;10933;50.754;11.508;2024-02-28T09:19:13;100250.63;;;11.44;100.00
21545;BME280;10933;50.754;11.508;2024-02-28T09:21:39;100239.31;;;9.95;100.00
21545;BME280;10933;50.754;11.508;2024-02-28T09:24:06;100249.56;;;8.90;100.00
21545;BME280;10933;50.754;11.508;2024-02-28T09:26:32;100233.53;;;9.13;100.00
21545;BME280;10933;50.754;11.508;2024-02-28T09:28:58;100245.00;;;9.08;100.00
21545;BME280;10933;50.754;11.508;2024-02-28T09:31:25;100234.78;;;10.60;100.00
21545;BME280;10933;50.754;11.508;2024-02-28T09:33:52;100236.91;;;10.05;100.00
21545;BME280;10933;50.754;11.508;2024-02-28T09:36:18;100241.81;;;10.85;100.00
21545;BME280;10933;50.754;11.508;2024-02-28T09:38:45;100247.22;;;11.37;100.00
21545;BME280;10933;50.754;11.508;2024-02-28T09:41:15;100260.66;;;12.17;100.00
21545;BME280;10933;50.754;11.508;2024-02-28T09:43:45;100260.31;;;12.59;100.00
21545;BME280;10933;50.754;11.508;2024-02-28T09:46:12;100268.88;;;11.65;100.00
21545;BME280;10933;50.754;11.508;2024-02-28T09:48:42;100258.66;;;11.27;100.00
21545;BME280;10933;50.754;11.508;2024-02-28T09:51:10;100267.09;;;11.83;100.00
21545;BME280;10933;50.754;11.508;2024-02-28T09:53:39;100272.34;;;11.49;100.00
21545;BME280;10933;50.754;11.508;2024-02-28T09:56:07;100267.31;;;11.29;100.00
21545;BME280;10933;50.754;11.508;2024-02-28T09:58:34;100272.84;;;12.65;100.00
21545;BME280;10933;50.754;11.508;2024-02-28T10:01:02;100278.84;;;15.21;100.00
21545;BME280;10933;50.754;11.508;2024-02-28T10:03:30;100272.66;;;13.71;100.00
21545;BME280;10933;50.754;11.508;2024-02-28T10:05:58;100276.47;;;13.26;100.00
21545;BME280;10933;50.754;11.508;2024-02-28T10:08:24;100283.50;;;13.71;100.00
21545;BME280;10933;50.754;11.508;2024-02-28T10:10:50;100282.91;;;12.36;100.00
21545;BME280;10933;50.754;11.508;2024-02-28T10:13:20;100283.94;;;11.61;100.00
21545;BME280;10933;50.754;11.508;2024-02-28T10:15:49;100294.94;;;11.31;100.00
21545;BME280;10933;50.754;11.508;2024-02-28T10:18:15;100281.44;;;11.19;100.00
21545;BME280;10933;50.754;11.508;2024-02-28T10:20:41;100285.66;;;11.67;100.00
21545;BME280;10933;50.754;11.508;2024-02-28T10:23:08;100287.69;;;11.08;100.00
21545;BME280;10933;50.754;11.508;2024-02-28T10:25:45;100293.19;;;10.90;100.00
21545;BME280;10933;50.754;11.508;2024-02-28T10:28:12;100294.34;;;11.81;100.00
21545;BME280;10933;50.754;11.508;2024-02-28T10:30:41;100294.00;;;11.66;100.00
21545;BME280;10933;50.754;11.508;2024-02-28T10:33:14;100300.22;;;12.85;100.00
21545;BME280;10933;50.754;11.508;2024-02-28T10:35:41;100298.59;;;13.62;100.00
21545;BME280;10933;50.754;11.508;2024-02-28T10:38:12;100306.28;;;12.92;100.00
21545;BME280;10933;50.754;11.508;2024-02-28T10:40:41;100306.81;;;13.94;100.00
21545;BME280;10933;50.754;11.508;2024-02-28T10:43:11;100307.91;;;13.27;100.00
21545;BME280;10933;50.754;11.508;2024-02-28T10:45:38;100315.06;;;14.58;100.00
21545;BME280;10933;50.754;11.508;2024-02-28T10:48:06;100314.75;;;14.49;100.00
21545;BME280;10933;50.754;11.508;2024-02-28T10:50:32;100316.34;;;15.14;100.00
21545;BME280;10933;50.754;11.508;2024-02-28T10:53:02;100303.06;;;11.71;100.00
21545;BME280;10933;50.754;11.508;2024-02-28T10:55:40;100309.75;;;12.71;100.00
21545;BME280;10933;50.754;11.508;2024-02-28T10:58:07;100312.13;;;12.51;100.00
21545;BME280;10933;50.754;11.508;2024-02-28T11:00:35;100315.75;;;12.11;100.00
21545;BME280;10933;50.754;11.508;2024-02-28T11:03:02;100309.97;;;11.67;100.00
21545;BME280;10933;50.754;11.508;2024-02-28T11:05:41;100314.53;;;12.19;100.00
21545;BME280;10933;50.754;11.508;2024-02-28T11:08:28;100321.56;;;12.99;100.00
21545;BME280;10933;50.754;11.508;2024-02-28T11:10:56;100319.97;;;14.56;100.00
21545;BME280;10933;50.754;11.508;2024-02-28T11:13:27;100319.66;;;12.49;100.00
21545;BME280;10933;50.754;11.508;2024-02-28T11:15:54;100323.91;;;11.59;100.00
21545;BME280;10933;50.754;11.508;2024-02-28T11:18:23;100321.72;;;12.13;100.00
21545;BME280;10933;50.754;11.508;2024-02-28T11:20:49;100319.84;;;11.73;100.00
21545;BME280;10933;50.754;11.508;2024-02-28T11:23:18;100316.81;;;11.70;100.00
21545;BME280;10933;50.754;11.508;2024-02-28T11:25:44;100322.69;;;13.03;100.00
21545;BME280;10933;50.754;11.508;2024-02-28T11:28:10;100330.56;;;13.81;100.00
21545;BME280;10933;50.754;11.508;2024-02-28T11:30:36;100319.81;;;13.92;100.00
21545;BME280;10933;50.754;11.508;2024-02-28T11:33:02;100321.94;;;13.63;100.00
21545;BME280;10933;50.754;11.508;2024-02-28T11:35:28;100312.34;;;13.77;100.00
21545;BME280;10933;50.754;11.508;2024-02-28T11:37:55;100323.03;;;12.73;100.00
21545;BME280;10933;50.754;11.508;2024-02-28T11:40:25;100314.09;;;14.42;100.00
21545;BME280;10933;50.754;11.508;2024-02-28T11:42:51;100295.53;;;14.93;100.00
21545;BME280;10933;50.754;11.508;2024-02-28T11:45:18;100301.31;;;15.54;100.00
21545;BME280;10933;50.754;11.508;2024-02-28T11:47:45;100300.91;;;14.24;100.00
21545;BME280;10933;50.754;11.508;2024-02-28T11:50:11;100298.28;;;14.98;100.00
21545;BME280;10933;50.754;11.508;2024-02-28T11:52:37;100307.44;;;13.74;100.00
21545;BME280;10933;50.754;11.508;2024-02-28T11:55:04;100309.09;;;12.64;100.00
21545;BME280;10933;50.754;11.508;2024-02-28T11:57:31;100304.88;;;13.23;100.00
21545;BME280;10933;50.754;11.508;2024-02-28T12:00:03;100308.59;;;12.84;100.00
21545;BME280;10933;50.754;11.508;2024-02-28T12:02:30;100322.94;;;14.54;100.00
21545;BME280;10933;50.754;11.508;2024-02-28T12:05:01;100304.13;;;12.94;100.00
21545;BME280;10933;50.754;11.508;2024-02-28T12:07:27;100299.41;;;13.40;100.00
21545;BME280;10933;50.754;11.508;2024-02-28T12:09:57;100299.34;;;13.35;100.00
21545;BME280;10933;50.754;11.508;2024-02-28T12:12:23;100306.13;;;12.99;100.00
21545;BME280;10933;50.754;11.508;2024-02-28T12:14:50;100296.16;;;13.05;100.00
21545;BME280;10933;50.754;11.508;2024-02-28T12:17:17;100293.72;;;13.42;100.00
21545;BME280;10933;50.754;11.508;2024-02-28T12:19:43;100292.47;;;13.71;100.00
21545;BME280;10933;50.754;11.508;2024-02-28T12:22:10;100297.16;;;14.03;100.00
21545;BME280;10933;50.754;11.508;2024-02-28T12:24:36;100293.13;;;14.05;100.00
21545;BME280;10933;50.754;11.508;2024-02-28T12:27:03;100291.41;;;13.50;100.00
21545;BME280;10933;50.754;11.508;2024-02-28T12:29:29;100284.50;;;13.21;100.00
21545;BME280;10933;50.754;11.508;2024-02-28T12:31:55;100283.59;;;13.15;100.00
21545;BME280;10933;50.754;11.508;2024-02-28T12:34:21;100279.81;;;13.16;100.00
21545;BME280;10933;50.754;11.508;2024-02-28T12:36:48;100287.84;;;12.89;100.00
21545;BME280;10933;50.754;11.508;2024-02-28T12:39:14;100280.13;;;13.37;100.00
21545;BME280;10933;50.754;11.508;2024-02-28T12:41:40;100288.72;;;13.99;100.00